Time;durP1;ratioP1;P1;durP2;ratioP2;P2;SDS_P1;SDS_P2;PMS_P1;PMS_P2;Temp;Humidity;BMP_temperature;BMP_pressure;BME280_temperature;BME280_humidity;BME280_pressure;Samples;Min_cycle;Max_cycle;Signal;HPM_P1;HPM_P2
2021/12/05 00:23:30;;;;;;;;;;;;;;;20.78;45.33;99339.75;2068495;28;19906;-61
2021/12/05 00:24:34;;;;;;;;;;;;;;;20.79;45.41;99330.47;2085124;28;19921;-60
2021/12/05 00:25:35;;;;;;;;;;;;;;;20.77;45.50;99325.19;2093312;28;20548;-61
2021/12/05 00:26:36;;;;;;;;;;;;;;;20.77;45.63;99321.59;2094437;28;19930;-61
2021/12/05 00:27:43;;;;;;;;;;;;;;;20.76;45.63;99314.41;2096386;28;19913;-61
2021/12/05 00:32:17;;;;;;;;;;;;;;;20.74;45.43;99311.00;2094269;28;19924;-60
2021/12/05 00:38:14;;;;;;;;;;;;;;;20.71;45.64;99294.94;2089224;28;19917;-61
2021/12/05 00:42:48;;;;;;;;;;;;;;;20.70;45.94;99282.25;2071654;28;20355;-60
2021/12/05 00:44:05;;;;;;;;;;;;;;;20.69;46.04;99286.03;2091678;28;20369;-61
2021/12/05 00:45:32;;;;;;;;;;;;;;;20.69;45.80;99275.09;2093881;28;19912;-60
2021/12/05 00:46:41;;;;;;;;;;;;;;;20.68;46.07;99267.91;2095134;28;19924;-61
2021/12/05 00:56:27;;;;;;;;;;;;;;;20.67;45.92;99266.19;2095093;28;19952;-62
2021/12/05 00:57:40;;;;;;;;;;;;;;;20.66;45.81;99264.50;2096511;28;20058;-61
2021/12/05 01:09:29;;;;;;;;;;;;;;;20.62;46.07;99243.97;2099983;28;20021;-67
2021/12/05 01:15:18;;;;;;;;;;;;;;;20.62;45.86;99241.25;2098588;28;20355;-67
2021/12/05 01:16:19;;;;;;;;;;;;;;;20.62;46.15;99241.25;2099751;28;19912;-67
2021/12/05 01:17:24;;;;;;;;;;;;;;;20.61;45.94;99237.66;2099529;28;20007;-68
2021/12/05 01:18:25;;;;;;;;;;;;;;;20.61;46.00;99243.13;2099883;28;19953;-67
2021/12/05 01:19:28;;;;;;;;;;;;;;;20.61;46.08;99239.53;2100174;28;19908;-67
2021/12/05 01:20:30;;;;;;;;;;;;;;;20.60;45.93;99237.81;2099777;28;19912;-67
2021/12/05 01:21:32;;;;;;;;;;;;;;;20.61;46.18;99228.59;2099704;28;19999;-67
2021/12/05 01:22:35;;;;;;;;;;;;;;;20.59;46.04;99222.44;2099882;28;19913;-67
2021/12/05 01:26:00;;;;;;;;;;;;;;;20.61;46.23;99229.44;2099868;28;19916;-65
2021/12/05 01:27:12;;;;;;;;;;;;;;;20.60;46.08;99232.34;2098943;28;20363;-67
2021/12/05 01:30:35;;;;;;;;;;;;;;;20.60;46.03;99232.34;2099818;28;20267;-67
2021/12/05 01:32:05;;;;;;;;;;;;;;;20.59;46.16;99225.19;2099508;28;20379;-67
2021/12/05 01:33:20;;;;;;;;;;;;;;;20.59;46.22;99219.69;2099615;28;20367;-68
2021/12/05 01:36:13;;;;;;;;;;;;;;;20.59;46.12;99198.66;2082130;28;19913;-67
2021/12/05 02:09:54;;;;;;;;;;;;;;;19.75;47.79;99179.22;2079824;28;20584;-70
2021/12/05 02:32:14;;;;;;;;;;;;;;;19.64;47.93;99179.53;2080571;28;19925;-70
2021/12/05 02:33:42;;;;;;;;;;;;;;;19.63;47.88;99181.44;2082008;28;19928;-70
2021/12/05 02:42:07;;;;;;;;;;;;;;;19.59;47.99;99171.88;2083420;28;19916;-71
2021/12/05 02:43:10;;;;;;;;;;;;;;;19.59;47.98;99166.41;2083554;28;20381;-70
2021/12/05 02:44:20;;;;;;;;;;;;;;;19.59;47.99;99166.41;2082846;28;19920;-70
2021/12/05 02:45:20;;;;;;;;;;;;;;;19.58;47.97;99152.91;2079031;28;20448;-71
2021/12/05 02:46:22;;;;;;;;;;;;;;;19.58;47.99;99151.03;2082300;28;20688;-70
2021/12/05 02:47:25;;;;;;;;;;;;;;;19.58;48.01;99150.19;2078478;28;20012;-70
2021/12/05 02:48:28;;;;;;;;;;;;;;;19.57;47.97;99146.56;2082673;28;19917;-70
2021/12/05 02:49:31;;;;;;;;;;;;;;;19.57;47.97;99149.31;2076759;28;20289;-70
2021/12/05 02:50:32;;;;;;;;;;;;;;;19.57;47.96;99143.00;2083333;28;19916;-70
2021/12/05 02:51:33;;;;;;;;;;;;;;;19.57;47.85;99143.84;2083579;28;19931;-70
2021/12/05 02:52:36;;;;;;;;;;;;;;;19.57;47.91;99138.38;2083059;28;19952;-70
2021/12/05 02:54:45;;;;;;;;;;;;;;;19.56;48.00;99131.22;2080121;28;19916;-70
2021/12/05 02:55:48;;;;;;;;;;;;;;;19.56;48.04;99131.22;2082603;28;20273;-70
2021/12/05 02:56:50;;;;;;;;;;;;;;;19.55;48.03;99129.53;2083566;28;19923;-70
2021/12/05 02:57:58;;;;;;;;;;;;;;;19.56;48.05;99123.03;2083600;28;19916;-70
2021/12/05 02:59:06;;;;;;;;;;;;;;;19.56;47.94;99114.81;2079794;28;20027;-70
2021/12/05 03:00:12;;;;;;;;;;;;;;;19.55;48.03;99124.06;2082688;28;20653;-70
2021/12/05 03:01:40;;;;;;;;;;;;;;;19.56;48.01;99119.44;2080204;28;20019;-70
2021/12/05 03:02:43;;;;;;;;;;;;;;;19.56;48.09;99113.97;2082218;28;20340;-70
2021/12/05 03:03:45;;;;;;;;;;;;;;;19.55;47.95;99107.66;2081527;28;20292;-70
2021/12/05 03:04:49;;;;;;;;;;;;;;;19.54;48.08;99100.47;2082969;28;19975;-70
2021/12/05 03:05:54;;;;;;;;;;;;;;;19.57;48.12;99099.25;2080565;28;19920;-70
2021/12/05 03:06:56;;;;;;;;;;;;;;;19.55;48.09;99096.72;2078052;28;19925;-70
2021/12/05 03:08:00;;;;;;;;;;;;;;;19.55;48.24;99096.72;2081855;28;20007;-70
2021/12/05 03:09:05;;;;;;;;;;;;;;;19.55;48.10;99094.00;2081152;28;20742;-70
2021/12/05 03:10:05;;;;;;;;;;;;;;;19.55;48.15;99094.00;2082799;28;20652;-70
2021/12/05 03:11:06;;;;;;;;;;;;;;;19.54;48.16;99089.53;2083484;28;19920;-70
2021/12/05 03:12:09;;;;;;;;;;;;;;;19.56;48.17;99092.94;2084482;28;19923;-70
2021/12/05 03:13:10;;;;;;;;;;;;;;;19.55;48.14;99085.78;2081908;28;20450;-70
2021/12/05 03:14:10;;;;;;;;;;;;;;;19.55;48.30;99074.84;2080796;28;20362;-70
2021/12/05 03:15:11;;;;;;;;;;;;;;;19.55;48.15;99083.06;2083690;28;20630;-70
2021/12/05 03:16:13;;;;;;;;;;;;;;;19.55;48.25;99080.31;2083622;28;19916;-70
2021/12/05 03:17:14;;;;;;;;;;;;;;;19.55;48.22;99082.19;2083673;28;20245;-70
2021/12/05 03:18:14;;;;;;;;;;;;;;;19.55;48.29;99080.31;2082532;28;20004;-70
2021/12/05 03:19:15;;;;;;;;;;;;;;;19.56;48.31;99075.69;2083054;28;19978;-70
2021/12/05 03:20:16;;;;;;;;;;;;;;;19.57;48.13;99080.97;2080509;28;20394;-70
2021/12/05 03:21:17;;;;;;;;;;;;;;;19.58;48.03;99079.97;2083589;28;19938;-70
2021/12/05 03:22:17;;;;;;;;;;;;;;;19.63;47.97;99071.22;2084295;28;19916;-70
2021/12/05 03:23:17;;;;;;;;;;;;;;;19.66;48.03;99070.88;2082721;28;19927;-70
2021/12/05 03:24:19;;;;;;;;;;;;;;;19.69;47.90;99068.66;2084062;28;19916;-70
2021/12/05 03:25:20;;;;;;;;;;;;;;;19.73;47.82;99066.41;2081126;28;19913;-70
2021/12/05 03:26:22;;;;;;;;;;;;;;;19.76;47.61;99074.25;2081994;28;20035;-70
2021/12/05 03:27:23;;;;;;;;;;;;;;;19.80;47.65;99072.03;2081264;28;19976;-70
2021/12/05 03:28:24;;;;;;;;;;;;;;;19.81;47.49;99066.38;2081916;28;19997;-70
2021/12/05 03:29:24;;;;;;;;;;;;;;;19.84;47.60;99068.78;2086038;28;19923;-70
2021/12/05 03:30:27;;;;;;;;;;;;;;;19.86;47.52;99057.63;2088766;28;20330;-70
2021/12/05 03:31:28;;;;;;;;;;;;;;;19.87;47.35;99062.94;2080110;28;19924;-70
2021/12/05 03:32:28;;;;;;;;;;;;;;;19.90;47.25;99053.50;2083146;28;20038;-70
2021/12/05 03:33:29;;;;;;;;;;;;;;;19.92;47.26;99048.72;2082029;28;19969;-70
2021/12/05 03:34:30;;;;;;;;;;;;;;;19.96;47.21;99054.66;2083865;28;19920;-70
2021/12/05 03:35:31;;;;;;;;;;;;;;;19.95;47.11;99048.34;2081383;28;19916;-71
2021/12/05 03:36:32;;;;;;;;;;;;;;;19.96;47.25;99055.50;2081644;28;19947;-70
2021/12/05 03:37:32;;;;;;;;;;;;;;;19.98;47.21;99044.41;2082934;28;20696;-71
2021/12/05 03:38:33;;;;;;;;;;;;;;;20.00;47.16;99059.59;2080722;28;19985;-70
2021/12/05 03:39:34;;;;;;;;;;;;;;;20.00;47.07;99056.00;2084667;28;19923;-71
2021/12/05 03:40:35;;;;;;;;;;;;;;;20.00;47.03;99056.88;2081760;28;20437;-64
2021/12/05 03:41:36;;;;;;;;;;;;;;;20.02;46.98;99051.22;2081563;28;19936;-64
2021/12/05 03:42:37;;;;;;;;;;;;;;;20.03;47.05;99050.19;2080914;28;19964;-64
2021/12/05 03:43:38;;;;;;;;;;;;;;;20.05;47.01;99059.91;2081289;28;19923;-64
2021/12/05 03:44:40;;;;;;;;;;;;;;;20.06;46.91;99049.81;2082867;28;19908;-63
2021/12/05 03:45:42;;;;;;;;;;;;;;;20.06;46.80;99056.16;2082743;28;19917;-64
2021/12/05 03:46:42;;;;;;;;;;;;;;;20.07;46.90;99046.91;2084260;28;19943;-64
2021/12/05 03:47:43;;;;;;;;;;;;;;;20.08;46.83;99043.13;2083643;28;19927;-64
2021/12/05 03:48:45;;;;;;;;;;;;;;;20.09;46.79;99044.84;2083336;28;20424;-64
2021/12/05 03:49:46;;;;;;;;;;;;;;;20.10;46.78;99052.00;2081652;28;19952;-63
2021/12/05 03:50:47;;;;;;;;;;;;;;;20.12;46.75;99049.94;2084238;28;19921;-63
2021/12/05 03:51:50;;;;;;;;;;;;;;;20.13;46.69;99046.16;2082805;28;19948;-63
2021/12/05 03:52:51;;;;;;;;;;;;;;;20.12;46.83;99049.94;2082413;28;19921;-63
2021/12/05 03:53:52;;;;;;;;;;;;;;;20.15;46.71;99053.34;2081910;28;19909;-63
2021/12/05 03:54:52;;;;;;;;;;;;;;;20.15;46.68;99059.66;2084686;28;19923;-63
2021/12/05 03:55:54;;;;;;;;;;;;;;;20.15;46.64;99054.19;2082214;28;19959;-63
2021/12/05 03:56:54;;;;;;;;;;;;;;;20.16;46.78;99050.41;2080804;28;19920;-64
2021/12/05 03:57:54;;;;;;;;;;;;;;;20.18;46.67;99047.50;2083584;28;19908;-63
2021/12/05 03:58:55;;;;;;;;;;;;;;;20.17;46.67;99043.94;2083000;28;19955;-63
2021/12/05 03:59:56;;;;;;;;;;;;;;;20.17;46.74;99046.66;2083049;28;19916;-64
2021/12/05 04:00:57;;;;;;;;;;;;;;;20.19;46.61;99049.22;2082434;28;20450;-64
2021/12/05 04:01:59;;;;;;;;;;;;;;;20.19;46.67;99049.22;2082047;28;19909;-64
2021/12/05 04:03:01;;;;;;;;;;;;;;;20.19;46.63;99044.59;2082088;28;20003;-64
2021/12/05 04:04:01;;;;;;;;;;;;;;;20.20;46.58;99034.50;2082555;28;20015;-63
2021/12/05 04:05:02;;;;;;;;;;;;;;;20.20;46.48;99046.28;2083139;28;19917;-64
2021/12/05 04:06:03;;;;;;;;;;;;;;;20.20;46.52;99050.91;2083034;28;20760;-62
2021/12/05 04:07:04;;;;;;;;;;;;;;;20.20;46.63;99039.97;2081583;28;19917;-63
2021/12/05 04:08:07;;;;;;;;;;;;;;;20.20;46.49;99034.50;2083514;28;19916;-62
2021/12/05 04:09:09;;;;;;;;;;;;;;;20.20;46.64;99043.56;2082289;28;19917;-62
2021/12/05 04:10:10;;;;;;;;;;;;;;;20.20;46.56;99034.50;2080940;28;20820;-62
2021/12/05 04:11:12;;;;;;;;;;;;;;;20.20;46.37;99039.97;2081485;28;20393;-62
2021/12/05 04:12:15;;;;;;;;;;;;;;;20.21;46.45;99036.19;2083294;28;19987;-63
2021/12/05 04:13:15;;;;;;;;;;;;;;;20.20;46.52;99026.28;2083403;28;20029;-63
2021/12/05 04:14:17;;;;;;;;;;;;;;;20.20;46.41;99038.06;2083343;28;19920;-62
2021/12/05 04:15:18;;;;;;;;;;;;;;;20.21;46.49;99027.97;2084401;28;19948;-63
2021/12/05 04:16:18;;;;;;;;;;;;;;;20.22;46.54;99032.44;2083106;28;19916;-62
2021/12/05 04:17:19;;;;;;;;;;;;;;;20.21;46.41;99030.72;2084078;28;19917;-62
2021/12/05 04:18:21;;;;;;;;;;;;;;;20.21;46.40;99036.19;2082646;28;19916;-63
2021/12/05 04:19:22;;;;;;;;;;;;;;;20.21;46.39;99030.72;2083178;28;19967;-63
2021/12/05 04:20:23;;;;;;;;;;;;;;;20.20;46.46;99029.03;2080334;28;20385;-63
2021/12/05 04:21:24;;;;;;;;;;;;;;;20.19;46.56;99028.19;2081923;28;19916;-70
2021/12/05 04:22:24;;;;;;;;;;;;;;;20.19;46.63;99021.88;2090591;28;19912;-69
2021/12/05 04:23:25;;;;;;;;;;;;;;;20.19;46.65;99016.41;2080673;28;19912;-69
2021/12/05 04:24:25;;;;;;;;;;;;;;;20.19;46.46;99022.72;2085873;28;19965;-69
2021/12/05 04:25:26;;;;;;;;;;;;;;;20.19;46.51;99027.34;2081131;28;19923;-70
2021/12/05 04:26:26;;;;;;;;;;;;;;;20.19;46.66;99016.41;2079312;28;19920;-69
2021/12/05 04:27:27;;;;;;;;;;;;;;;20.19;46.61;99016.41;2082794;28;19916;-69
2021/12/05 04:28:28;;;;;;;;;;;;;;;20.18;46.64;99020.16;2080490;28;19942;-70
2021/12/05 04:29:28;;;;;;;;;;;;;;;20.18;46.48;99023.72;2078018;28;19917;-69
2021/12/05 04:30:28;;;;;;;;;;;;;;;20.19;46.71;99019.13;2091298;28;19912;-70
2021/12/05 04:31:29;;;;;;;;;;;;;;;20.18;46.57;99020.16;2088217;28;19935;-70
2021/12/05 04:32:29;;;;;;;;;;;;;;;20.18;46.63;99020.16;2086054;28;20013;-70
2021/12/05 04:33:30;;;;;;;;;;;;;;;20.16;46.76;99014.84;2084157;28;19916;-70
2021/12/05 04:34:30;;;;;;;;;;;;;;;20.18;46.70;99020.16;2085787;28;20295;-70
2021/12/05 04:35:31;;;;;;;;;;;;;;;20.18;46.47;99015.50;2084256;28;20382;-69
2021/12/05 04:36:31;;;;;;;;;;;;;;;20.16;46.67;99016.72;2085087;28;20479;-70
2021/12/05 04:37:32;;;;;;;;;;;;;;;20.16;46.53;99019.47;2084972;28;19922;-70
2021/12/05 04:38:32;;;;;;;;;;;;;;;20.16;46.56;99016.72;2084998;28;19997;-70
2021/12/05 04:39:33;;;;;;;;;;;;;;;20.16;46.52;99014.00;2082418;28;19917;-70
2021/12/05 04:40:33;;;;;;;;;;;;;;;20.15;46.49;99015.88;2090823;28;19920;-70
2021/12/05 04:41:34;;;;;;;;;;;;;;;20.16;46.75;99011.25;2093130;28;19947;-70
2021/12/05 04:42:35;;;;;;;;;;;;;;;20.16;46.73;99011.25;2084730;28;20414;-69
2021/12/05 04:43:38;;;;;;;;;;;;;;;20.13;46.76;99013.31;2085909;28;19916;-70
2021/12/05 04:44:38;;;;;;;;;;;;;;;20.14;46.52;99008.72;2081969;28;19908;-69
2021/12/05 04:45:39;;;;;;;;;;;;;;;20.13;46.63;99007.00;2086601;28;19915;-70
2021/12/05 04:46:39;;;;;;;;;;;;;;;20.14;46.60;99003.25;2086578;28;20069;-69
2021/12/05 04:47:40;;;;;;;;;;;;;;;20.13;46.59;98996.06;2083623;28;20150;-70
2021/12/05 04:48:41;;;;;;;;;;;;;;;20.12;46.61;99006.16;2084529;28;19912;-69
2021/12/05 04:49:41;;;;;;;;;;;;;;;20.12;46.53;99000.69;2089202;28;20259;-69
2021/12/05 04:50:44;;;;;;;;;;;;;;;20.12;46.55;99010.78;2092773;28;19930;-70
2021/12/05 04:51:45;;;;;;;;;;;;;;;20.12;46.59;99005.31;2083807;28;19916;-70
2021/12/05 04:52:46;;;;;;;;;;;;;;;20.11;46.76;99003.59;2082169;28;19927;-71
2021/12/05 04:53:46;;;;;;;;;;;;;;;20.12;46.62;99008.06;2082392;28;19920;-70
2021/12/05 04:54:47;;;;;;;;;;;;;;;20.12;46.71;99011.63;2084148;28;19917;-70
2021/12/05 04:55:47;;;;;;;;;;;;;;;20.10;46.77;99008.22;2092640;28;19934;-70
2021/12/05 04:56:48;;;;;;;;;;;;;;;20.09;46.71;99006.53;2091670;28;20020;-70
2021/12/05 04:57:49;;;;;;;;;;;;;;;20.08;46.65;99004.81;2083885;28;19916;-69
2021/12/05 04:58:50;;;;;;;;;;;;;;;20.08;46.71;98999.34;2084834;28;19916;-69
2021/12/05 04:59:52;;;;;;;;;;;;;;;20.09;46.63;99003.81;2082766;28;19943;-69
2021/12/05 05:00:56;;;;;;;;;;;;;;;20.09;46.78;99002.97;2083439;28;20425;-70
2021/12/05 05:01:59;;;;;;;;;;;;;;;20.07;46.66;98997.66;2084159;28;19916;-70
2021/12/05 05:03:00;;;;;;;;;;;;;;;20.07;46.86;98996.81;2082214;28;19915;-70
2021/12/05 05:04:03;;;;;;;;;;;;;;;20.08;46.75;98999.34;2085276;28;19916;-69
2021/12/05 05:05:03;;;;;;;;;;;;;;;20.07;46.78;98996.81;2081746;28;19923;-70
2021/12/05 05:06:09;;;;;;;;;;;;;;;20.06;46.80;99001.44;2083596;28;19927;-69
2021/12/05 05:07:15;;;;;;;;;;;;;;;20.07;46.65;98996.81;2085130;28;20007;-69
2021/12/05 05:08:16;;;;;;;;;;;;;;;20.06;46.72;98998.72;2084128;28;20413;-70
2021/12/05 05:09:17;;;;;;;;;;;;;;;20.05;46.71;98994.25;2085835;28;20390;-69
2021/12/05 05:10:28;;;;;;;;;;;;;;;20.04;46.69;98992.56;2082667;28;20430;-70
2021/12/05 05:11:28;;;;;;;;;;;;;;;20.04;46.79;98987.09;2084149;28;20375;-71
2021/12/05 05:12:29;;;;;;;;;;;;;;;20.05;46.71;98988.78;2084249;28;20314;-71
2021/12/05 05:13:30;;;;;;;;;;;;;;;20.04;46.74;98987.09;2083438;28;19948;-71
2021/12/05 05:14:30;;;;;;;;;;;;;;;20.04;46.79;98992.56;2084376;28;19943;-71
2021/12/05 05:15:31;;;;;;;;;;;;;;;20.03;46.96;98996.31;2081703;28;19916;-71
2021/12/05 05:16:31;;;;;;;;;;;;;;;20.03;46.78;98992.72;2080349;28;20574;-70
2021/12/05 05:17:33;;;;;;;;;;;;;;;20.03;46.98;98999.03;2085861;28;20599;-70
2021/12/05 05:18:43;;;;;;;;;;;;;;;20.02;46.84;98994.63;2081339;28;20398;-71
2021/12/05 05:19:49;;;;;;;;;;;;;;;20.02;46.88;99000.09;2081835;28;19916;-71
2021/12/05 05:25:02;;;;;;;;;;;;;;;20.01;46.87;98997.53;2082523;28;19927;-70
2021/12/05 05:28:24;;;;;;;;;;;;;;;20.00;46.99;98993.09;2084245;28;20413;-70
2021/12/05 05:39:41;;;;;;;;;;;;;;;19.93;47.04;98962.88;2094537;28;20001;-60
2021/12/05 05:43:11;;;;;;;;;;;;;;;19.92;47.01;98972.13;2096661;28;19917;-60
2021/12/05 05:46:18;;;;;;;;;;;;;;;19.91;47.06;98964.94;2094205;28;19916;-60
2021/12/05 05:48:35;;;;;;;;;;;;;;;19.90;47.02;98966.84;2091214;28;20387;-60
2021/12/05 05:50:46;;;;;;;;;;;;;;;19.88;47.09;98966.16;2094447;28;20331;-61
2021/12/05 05:51:46;;;;;;;;;;;;;;;19.88;47.09;98968.91;2095962;28;19916;-60
2021/12/05 05:52:47;;;;;;;;;;;;;;;19.88;47.00;98962.59;2103680;28;20435;-60
2021/12/05 05:53:48;;;;;;;;;;;;;;;19.88;47.00;98968.91;2101509;28;19939;-61
2021/12/05 05:54:50;;;;;;;;;;;;;;;19.86;46.96;98964.66;2096408;28;19912;-60
2021/12/05 05:55:51;;;;;;;;;;;;;;;19.86;47.10;98967.38;2095370;28;19920;-61
2021/12/05 05:56:57;;;;;;;;;;;;;;;19.84;47.04;98959.38;2096321;28;19917;-60
2021/12/05 05:58:05;;;;;;;;;;;;;;;19.84;47.13;98969.44;2095277;28;19917;-60
2021/12/05 05:59:15;;;;;;;;;;;;;;;19.84;47.14;98966.72;2094652;28;20007;-60
2021/12/05 06:00:29;;;;;;;;;;;;;;;19.83;47.25;98962.28;2096111;28;20007;-60
2021/12/05 06:03:55;;;;;;;;;;;;;;;19.83;47.22;98962.28;2095449;28;20303;-60
2021/12/05 06:04:55;;;;;;;;;;;;;;;19.82;47.20;98960.56;2093154;28;19916;-61
2021/12/05 06:06:00;;;;;;;;;;;;;;;19.81;47.10;98958.88;2098392;28;19919;-60
2021/12/05 06:07:01;;;;;;;;;;;;;;;19.80;47.27;98957.19;2100526;28;20306;-60
2021/12/05 06:08:01;;;;;;;;;;;;;;;19.80;47.24;98957.19;2103266;28;19917;-60
2021/12/05 06:09:02;;;;;;;;;;;;;;;19.79;47.24;98959.03;2103313;28;19966;-60
2021/12/05 06:10:03;;;;;;;;;;;;;;;19.78;47.26;98953.78;2094382;28;20527;-60
2021/12/05 06:11:05;;;;;;;;;;;;;;;19.78;47.28;98959.25;2095336;28;20003;-60
2021/12/05 06:12:05;;;;;;;;;;;;;;;19.77;47.32;98963.88;2103242;28;19945;-60
2021/12/05 06:13:06;;;;;;;;;;;;;;;19.78;47.18;98967.44;2103258;28;20447;-60
2021/12/05 06:14:06;;;;;;;;;;;;;;;19.77;47.27;98968.47;2103554;28;20596;-61
2021/12/05 06:15:09;;;;;;;;;;;;;;;19.75;47.36;98965.94;2095292;28;19916;-60
2021/12/05 06:16:10;;;;;;;;;;;;;;;19.75;47.32;98965.09;2089085;28;19913;-60
2021/12/05 06:17:10;;;;;;;;;;;;;;;19.74;47.26;98964.22;2094794;28;19966;-61
2021/12/05 06:18:11;;;;;;;;;;;;;;;19.74;47.40;98963.38;2095095;28;19974;-60
2021/12/05 06:19:12;;;;;;;;;;;;;;;19.74;47.32;98966.09;2096319;28;19920;-60
2021/12/05 06:20:15;;;;;;;;;;;;;;;19.73;47.45;98969.88;2102870;28;19916;-61
2021/12/05 06:21:16;;;;;;;;;;;;;;;19.72;47.26;98968.16;2103291;28;19923;-60
2021/12/05 06:22:16;;;;;;;;;;;;;;;19.71;47.49;98972.78;2095041;28;19966;-61
2021/12/05 06:23:17;;;;;;;;;;;;;;;19.71;47.39;98975.53;2095161;28;20013;-60
2021/12/05 06:24:17;;;;;;;;;;;;;;;19.70;47.39;98974.69;2103447;28;19923;-60
2021/12/05 06:25:21;;;;;;;;;;;;;;;19.69;47.45;98972.94;2102368;28;19916;-60
2021/12/05 06:26:23;;;;;;;;;;;;;;;19.67;47.44;98969.56;2088576;28;19924;-66
2021/12/05 06:27:23;;;;;;;;;;;;;;;19.68;47.46;98975.88;2081230;28;19920;-66
2021/12/05 06:28:46;;;;;;;;;;;;;;;19.67;47.45;98975.03;2079794;28;19916;-66
2021/12/05 06:29:53;;;;;;;;;;;;;;;19.67;47.57;98980.50;2079987;28;19968;-65
2021/12/05 06:37:25;;;;;;;;;;;;;;;19.61;47.70;98974.88;2081534;28;19917;-65
2021/12/05 06:39:44;;;;;;;;;;;;;;;19.60;47.65;98965.81;2084023;28;19924;-65
2021/12/05 06:41:11;;;;;;;;;;;;;;;19.58;47.64;98965.16;2082511;28;20371;-65
2021/12/05 06:42:33;;;;;;;;;;;;;;;19.58;47.80;98964.31;2076780;28;19913;-65
2021/12/05 06:46:02;;;;;;;;;;;;;;;19.56;47.80;98967.22;2083663;28;19978;-65
2021/12/05 06:47:03;;;;;;;;;;;;;;;19.55;47.74;98965.53;2081663;28;19923;-65
2021/12/05 06:48:03;;;;;;;;;;;;;;;19.54;47.90;98963.81;2082208;28;19916;-66
2021/12/05 06:49:04;;;;;;;;;;;;;;;19.55;47.70;98970.09;2082874;28;19927;-65
2021/12/05 06:50:04;;;;;;;;;;;;;;;19.54;47.84;98968.41;2080653;28;20371;-65
2021/12/05 06:51:05;;;;;;;;;;;;;;;19.52;47.80;98965.84;2082671;28;19929;-65
2021/12/05 06:52:07;;;;;;;;;;;;;;;19.53;47.83;98972.19;2080104;28;19913;-64
2021/12/05 06:53:07;;;;;;;;;;;;;;;19.51;47.88;98969.63;2083988;28;20884;-65
2021/12/05 06:54:08;;;;;;;;;;;;;;;19.52;47.93;98975.94;2082026;28;19913;-65
2021/12/05 06:55:08;;;;;;;;;;;;;;;19.50;47.99;98962.47;2089158;28;19933;-64
2021/12/05 06:56:08;;;;;;;;;;;;;;;19.49;48.03;98967.06;2088780;28;19908;-65
2021/12/05 06:57:09;;;;;;;;;;;;;;;19.49;47.94;98974.44;2082887;28;19959;-64
2021/12/05 06:58:09;;;;;;;;;;;;;;;19.48;47.95;98970.00;2081909;28;19908;-65
2021/12/05 06:59:09;;;;;;;;;;;;;;;19.48;47.93;98970.00;2083002;28;19912;-65
2021/12/05 07:00:18;;;;;;;;;;;;;;;19.47;48.04;98968.28;2083372;28;19917;-65
2021/12/05 07:01:18;;;;;;;;;;;;;;;19.46;47.86;98966.59;2081489;28;20290;-65
2021/12/05 07:02:20;;;;;;;;;;;;;;;19.47;47.98;98968.28;2082635;28;19908;-65
2021/12/05 07:03:20;;;;;;;;;;;;;;;19.46;48.06;98966.59;2082202;28;19970;-65
2021/12/05 07:06:45;;;;;;;;;;;;;;;19.44;48.08;98968.66;2080246;28;19920;-65
2021/12/05 07:07:47;;;;;;;;;;;;;;;19.44;48.08;98964.03;2091667;28;19943;-65
2021/12/05 07:08:48;;;;;;;;;;;;;;;19.44;47.99;98964.03;2088093;28;20448;-65
2021/12/05 07:09:48;;;;;;;;;;;;;;;19.44;48.08;98963.19;2083590;28;19944;-65
2021/12/05 07:20:57;;;;;;;;;;;;;;;19.39;48.14;98958.25;2081124;28;20276;-65
2021/12/05 07:22:00;;;;;;;;;;;;;;;19.38;48.17;98955.72;2081190;28;19915;-65
2021/12/05 07:23:17;;;;;;;;;;;;;;;19.38;48.19;98958.44;2083991;28;19916;-65
2021/12/05 07:24:38;;;;;;;;;;;;;;;19.37;48.17;98956.72;2081591;28;19936;-65
2021/12/05 07:26:10;;;;;;;;;;;;;;;19.37;48.28;98959.47;2081884;28;19916;-66
2021/12/05 07:40:22;;;;;;;;;;;;;;;19.34;48.30;98962.56;2081190;28;19925;-65
2021/12/05 07:40:28;;;;;;;;;;;;;;;19.32;48.30;98961.88;2080616;28;19912;-65
2021/12/05 07:41:47;;;;;;;;;;;;;;;19.30;48.41;98961.22;2083071;28;19913;-65
2021/12/05 07:42:48;;;;;;;;;;;;;;;19.28;48.27;98962.25;2079867;28;20707;-66
2021/12/05 07:43:49;;;;;;;;;;;;;;;19.28;48.37;98958.66;2083114;28;19967;-65
2021/12/05 07:44:53;;;;;;;;;;;;;;;19.27;48.30;98956.94;2081719;28;19916;-65
2021/12/05 07:46:03;;;;;;;;;;;;;;;19.27;48.39;98959.69;2075538;28;20449;-65
2021/12/05 07:47:04;;;;;;;;;;;;;;;19.26;48.42;98964.31;2079661;28;19916;-65
2021/12/05 07:48:14;;;;;;;;;;;;;;;19.25;48.43;98948.91;2082850;28;19959;-66
2021/12/05 07:49:16;;;;;;;;;;;;;;;19.25;48.40;98957.13;2081565;28;19912;-65
2021/12/05 07:50:19;;;;;;;;;;;;;;;19.25;48.37;98951.66;2081952;28;20383;-65
2021/12/05 07:52:24;;;;;;;;;;;;;;;19.23;48.38;98959.22;2082043;28;19916;-65
2021/12/05 07:53:31;;;;;;;;;;;;;;;19.23;48.41;98956.47;2083459;28;20027;-65
2021/12/05 07:54:45;;;;;;;;;;;;;;;19.23;48.46;98961.94;2081561;28;19912;-66
2021/12/05 07:55:48;;;;;;;;;;;;;;;19.22;48.47;98962.94;2084251;28;19916;-66
2021/12/05 07:56:56;;;;;;;;;;;;;;;19.22;48.55;98960.22;2083282;28;20718;-64
2021/12/05 08:00:22;;;;;;;;;;;;;;;19.21;48.48;98957.69;2083297;28;19916;-65
2021/12/05 08:14:46;;;;;;;;;;;;;;;19.15;48.74;98963.84;2080043;28;19916;-65
2021/12/05 08:15:59;;;;;;;;;;;;;;;19.14;48.63;98963.00;2085436;28;20275;-65
2021/12/05 08:17:00;;;;;;;;;;;;;;;19.14;48.74;98963.00;2082618;28;20347;-66
2021/12/05 08:18:01;;;;;;;;;;;;;;;19.14;48.68;98968.47;2083145;28;19959;-65
2021/12/05 08:19:02;;;;;;;;;;;;;;;19.14;48.74;98967.63;2085162;28;19923;-65
2021/12/05 08:20:04;;;;;;;;;;;;;;;19.14;48.76;98968.47;2083828;28;19916;-65
2021/12/05 08:21:05;;;;;;;;;;;;;;;19.14;48.73;98962.16;2090898;28;19977;-65
2021/12/05 08:22:06;;;;;;;;;;;;;;;19.13;48.71;98971.34;2091190;28;19924;-65
2021/12/05 08:23:07;;;;;;;;;;;;;;;19.13;48.68;98972.19;2085830;28;20710;-65
2021/12/05 08:24:07;;;;;;;;;;;;;;;19.13;48.60;98972.19;2084724;28;20686;-65
2021/12/05 08:25:11;;;;;;;;;;;;;;;19.12;48.66;98973.25;2083282;28;19915;-65
2021/12/05 08:26:18;;;;;;;;;;;;;;;19.12;48.73;98966.94;2084388;28;19981;-65
2021/12/05 08:27:18;;;;;;;;;;;;;;;19.12;48.63;98964.19;2083673;28;19916;-65
2021/12/05 08:28:33;;;;;;;;;;;;;;;19.11;48.75;98974.28;2083862;28;20374;-65
2021/12/05 08:29:54;;;;;;;;;;;;;;;19.10;48.76;98978.03;2082357;28;19916;-65
2021/12/05 08:31:08;;;;;;;;;;;;;;;19.10;48.76;98980.75;2083736;28;19923;-65
2021/12/05 08:33:25;;;;;;;;;;;;;;;19.10;48.71;98978.03;2083201;28;20019;-65
2021/12/05 08:38:53;;;;;;;;;;;;;;;19.17;48.54;98984.50;2072545;28;19921;-66
2021/12/05 09:20:04;;;;;;;;;;;;;;;19.30;48.10;99010.38;2082382;28;19916;-65
2021/12/05 09:22:36;;;;;;;;;;;;;;;19.06;48.53;99018.50;2082252;28;20015;-64
2021/12/05 09:24:43;;;;;;;;;;;;;;;19.05;48.59;99018.69;2083043;28;19905;-66
2021/12/05 09:28:39;;;;;;;;;;;;;;;19.04;48.43;99011.53;2087853;28;20717;-66
2021/12/05 10:03:06;;;;;;;;;;;;;;;18.92;48.69;99078.47;2099380;28;19913;-64
2021/12/05 10:09:59;;;;;;;;;;;;;;;18.96;48.69;99082.53;2099422;28;19916;-63
2021/12/05 10:13:59;;;;;;;;;;;;;;;18.96;48.57;99088.88;2096196;28;19923;-63
2021/12/05 10:15:22;;;;;;;;;;;;;;;18.97;48.46;99086.97;2093996;28;19943;-63
2021/12/05 10:20:08;;;;;;;;;;;;;;;18.93;48.74;99091.06;2081894;28;19956;-62
2021/12/05 10:34:56;;;;;;;;;;;;;;;19.10;48.50;99122.78;2097263;28;19944;-64
2021/12/05 10:37:06;;;;;;;;;;;;;;;19.11;48.24;99116.31;2103789;28;19912;-65
2021/12/05 10:38:11;;;;;;;;;;;;;;;19.14;48.38;99120.59;2098291;28;19912;-66
2021/12/05 10:39:19;;;;;;;;;;;;;;;19.15;48.58;99119.53;2097773;28;19913;-63
2021/12/05 10:40:22;;;;;;;;;;;;;;;19.17;48.49;99114.78;2098931;28;19923;-64
2021/12/05 10:42:44;;;;;;;;;;;;;;;19.17;48.45;99118.34;2098689;28;19919;-62
2021/12/05 10:43:45;;;;;;;;;;;;;;;19.18;48.51;99114.59;2098968;28;19916;-62
2021/12/05 10:44:46;;;;;;;;;;;;;;;19.17;48.40;99104.69;2098785;28;19985;-62
2021/12/05 10:45:54;;;;;;;;;;;;;;;19.17;48.29;99118.34;2098890;28;19916;-62
2021/12/05 10:46:54;;;;;;;;;;;;;;;19.15;48.46;99112.19;2105801;28;19924;-62
2021/12/05 10:47:55;;;;;;;;;;;;;;;19.15;48.49;99117.66;2102354;28;19913;-62
2021/12/05 10:49:16;;;;;;;;;;;;;;;19.14;48.40;99110.50;2094726;28;19912;-61